sensor_id;sensor_type;location;lat;lon;timestamp;temperature;humidity
9730;DHT22;4904;49.152;11.004;2022-11-20T00:01:26;3.00;99.90
9730;DHT22;4904;49.152;11.004;2022-11-20T00:03:55;3.20;99.90
9730;DHT22;4904;49.152;11.004;2022-11-20T00:06:23;3.10;99.90
9730;DHT22;4904;49.152;11.004;2022-11-20T00:08:52;3.10;99.90
9730;DHT22;4904;49.152;11.004;2022-11-20T00:11:23;3.10;99.90
9730;DHT22;4904;49.152;11.004;2022-11-20T00:13:51;3.20;99.90
9730;DHT22;4904;49.152;11.004;2022-11-20T00:16:20;3.20;99.90
9730;DHT22;4904;49.152;11.004;2022-11-20T00:18:48;3.20;99.90
9730;DHT22;4904;49.152;11.004;2022-11-20T00:21:16;3.10;99.90
9730;DHT22;4904;49.152;11.004;2022-11-20T00:23:44;3.10;99.90
9730;DHT22;4904;49.152;11.004;2022-11-20T00:26:13;3.10;99.90
9730;DHT22;4904;49.152;11.004;2022-11-20T00:28:42;3.20;99.90
9730;DHT22;4904;49.152;11.004;2022-11-20T00:31:11;3.10;99.90
9730;DHT22;4904;49.152;11.004;2022-11-20T00:33:38;3.20;99.90
9730;DHT22;4904;49.152;11.004;2022-11-20T00:36:07;3.20;99.90
9730;DHT22;4904;49.152;11.004;2022-11-20T00:38:34;3.30;99.90
9730;DHT22;4904;49.152;11.004;2022-11-20T00:41:03;3.30;99.90
9730;DHT22;4904;49.152;11.004;2022-11-20T00:43:31;3.30;99.90
9730;DHT22;4904;49.152;11.004;2022-11-20T00:45:59;3.30;99.90
9730;DHT22;4904;49.152;11.004;2022-11-20T00:48:26;3.30;99.90
9730;DHT22;4904;49.152;11.004;2022-11-20T00:50:54;3.30;99.90
9730;DHT22;4904;49.152;11.004;2022-11-20T00:53:21;3.30;99.90
9730;DHT22;4904;49.152;11.004;2022-11-20T00:55:55;3.30;99.90
9730;DHT22;4904;49.152;11.004;2022-11-20T00:58:22;3.30;99.90
9730;DHT22;4904;49.152;11.004;2022-11-20T01:00:50;3.50;99.90
9730;DHT22;4904;49.152;11.004;2022-11-20T01:03:18;3.30;99.90
9730;DHT22;4904;49.152;11.004;2022-11-20T01:05:45;3.30;99.90
9730;DHT22;4904;49.152;11.004;2022-11-20T01:08:12;3.40;99.90
9730;DHT22;4904;49.152;11.004;2022-11-20T01:10:39;3.40;99.90
9730;DHT22;4904;49.152;11.004;2022-11-20T01:13:05;3.40;99.90
9730;DHT22;4904;49.152;11.004;2022-11-20T01:15:49;3.40;99.90
9730;DHT22;4904;49.152;11.004;2022-11-20T01:18:18;3.40;99.90
9730;DHT22;4904;49.152;11.004;2022-11-20T01:20:44;3.40;99.90
9730;DHT22;4904;49.152;11.004;2022-11-20T01:23:11;3.40;99.90
9730;DHT22;4904;49.152;11.004;2022-11-20T01:25:38;3.40;99.90
9730;DHT22;4904;49.152;11.004;2022-11-20T01:28:05;3.40;99.90
9730;DHT22;4904;49.152;11.004;2022-11-20T01:30:32;3.30;99.90
9730;DHT22;4904;49.152;11.004;2022-11-20T01:32:58;3.20;99.90
9730;DHT22;4904;49.152;11.004;2022-11-20T01:35:27;3.20;99.90
9730;DHT22;4904;49.152;11.004;2022-11-20T01:37:53;3.10;99.90
9730;DHT22;4904;49.152;11.004;2022-11-20T01:40:20;3.20;99.90
9730;DHT22;4904;49.152;11.004;2022-11-20T01:42:53;3.20;99.90
9730;DHT22;4904;49.152;11.004;2022-11-20T01:46:00;3.10;99.90
9730;DHT22;4904;49.152;11.004;2022-11-20T01:48:31;3.10;99.90
9730;DHT22;4904;49.152;11.004;2022-11-20T01:51:03;3.20;99.90
9730;DHT22;4904;49.152;11.004;2022-11-20T01:53:33;3.20;99.90
9730;DHT22;4904;49.152;11.004;2022-11-20T01:56:04;3.20;99.90
9730;DHT22;4904;49.152;11.004;2022-11-20T01:58:35;3.20;99.90
9730;DHT22;4904;49.152;11.004;2022-11-20T02:01:03;3.30;99.90
9730;DHT22;4904;49.152;11.004;2022-11-20T02:03:31;3.30;99.90
9730;DHT22;4904;49.152;11.004;2022-11-20T02:06:04;3.30;99.90
9730;DHT22;4904;49.152;11.004;2022-11-20T02:08:34;3.30;99.90
9730;DHT22;4904;49.152;11.004;2022-11-20T02:11:02;3.20;99.90
9730;DHT22;4904;49.152;11.004;2022-11-20T02:13:28;3.20;99.90
9730;DHT22;4904;49.152;11.004;2022-11-20T02:16:14;3.20;99.90
9730;DHT22;4904;49.152;11.004;2022-11-20T02:18:42;3.00;99.90
9730;DHT22;4904;49.152;11.004;2022-11-20T02:21:30;3.00;99.90
9730;DHT22;4904;49.152;11.004;2022-11-20T02:24:06;2.90;99.90
9730;DHT22;4904;49.152;11.004;2022-11-20T02:26:37;2.90;99.90
9730;DHT22;4904;49.152;11.004;2022-11-20T02:29:05;2.80;99.90
9730;DHT22;4904;49.152;11.004;2022-11-20T02:31:41;2.70;99.90
9730;DHT22;4904;49.152;11.004;2022-11-20T02:34:08;2.70;99.90
9730;DHT22;4904;49.152;11.004;2022-11-20T02:36:36;2.70;99.90
9730;DHT22;4904;49.152;11.004;2022-11-20T02:39:07;2.80;99.90
9730;DHT22;4904;49.152;11.004;2022-11-20T02:41:37;2.80;99.90
9730;DHT22;4904;49.152;11.004;2022-11-20T02:44:05;2.90;99.90
9730;DHT22;4904;49.152;11.004;2022-11-20T02:46:32;3.00;99.90
9730;DHT22;4904;49.152;11.004;2022-11-20T02:49:00;3.00;99.90
9730;DHT22;4904;49.152;11.004;2022-11-20T02:51:27;3.10;99.90
9730;DHT22;4904;49.152;11.004;2022-11-20T02:53:54;3.10;99.90
9730;DHT22;4904;49.152;11.004;2022-11-20T02:56:22;3.10;99.90
9730;DHT22;4904;49.152;11.004;2022-11-20T02:58:49;3.10;99.90
9730;DHT22;4904;49.152;11.004;2022-11-20T03:01:16;3.10;99.90
9730;DHT22;4904;49.152;11.004;2022-11-20T03:03:43;3.00;99.90
9730;DHT22;4904;49.152;11.004;2022-11-20T03:06:10;3.00;99.90
9730;DHT22;4904;49.152;11.004;2022-11-20T03:08:37;3.10;99.90
9730;DHT22;4904;49.152;11.004;2022-11-20T03:11:05;3.20;99.90
9730;DHT22;4904;49.152;11.004;2022-11-20T03:13:34;3.30;99.90
9730;DHT22;4904;49.152;11.004;2022-11-20T03:16:06;3.40;99.90
9730;DHT22;4904;49.152;11.004;2022-11-20T03:18:33;3.30;99.90
9730;DHT22;4904;49.152;11.004;2022-11-20T03:21:00;3.40;99.90
9730;DHT22;4904;49.152;11.004;2022-11-20T03:23:29;3.40;99.90
9730;DHT22;4904;49.152;11.004;2022-11-20T03:26:07;3.40;99.90
9730;DHT22;4904;49.152;11.004;2022-11-20T03:28:35;3.50;99.90
9730;DHT22;4904;49.152;11.004;2022-11-20T03:31:06;3.50;99.90
9730;DHT22;4904;49.152;11.004;2022-11-20T03:33:33;3.50;99.90
9730;DHT22;4904;49.152;11.004;2022-11-20T03:36:01;3.60;99.90
9730;DHT22;4904;49.152;11.004;2022-11-20T03:38:29;3.60;99.90
9730;DHT22;4904;49.152;11.004;2022-11-20T03:40:59;3.60;99.90
9730;DHT22;4904;49.152;11.004;2022-11-20T03:43:26;3.60;99.90
9730;DHT22;4904;49.152;11.004;2022-11-20T03:45:54;3.70;99.90
9730;DHT22;4904;49.152;11.004;2022-11-20T03:48:21;3.70;99.90
9730;DHT22;4904;49.152;11.004;2022-11-20T03:50:47;3.70;99.90
9730;DHT22;4904;49.152;11.004;2022-11-20T03:53:14;3.70;99.90
9730;DHT22;4904;49.152;11.004;2022-11-20T03:55:41;3.70;99.90
9730;DHT22;4904;49.152;11.004;2022-11-20T03:58:08;3.60;99.90
9730;DHT22;4904;49.152;11.004;2022-11-20T04:00:35;3.40;99.90
9730;DHT22;4904;49.152;11.004;2022-11-20T04:03:04;3.40;99.90
9730;DHT22;4904;49.152;11.004;2022-11-20T04:05:32;3.40;99.90
9730;DHT22;4904;49.152;11.004;2022-11-20T04:07:59;3.40;99.90
9730;DHT22;4904;49.152;11.004;2022-11-20T04:10:26;3.30;99.90
9730;DHT22;4904;49.152;11.004;2022-11-20T04:12:52;3.30;99.90
9730;DHT22;4904;49.152;11.004;2022-11-20T04:15:19;3.30;99.90
9730;DHT22;4904;49.152;11.004;2022-11-20T04:17:46;3.30;99.90
9730;DHT22;4904;49.152;11.004;2022-11-20T04:20:14;3.30;99.90
9730;DHT22;4904;49.152;11.004;2022-11-20T04:22:41;3.40;99.90
9730;DHT22;4904;49.152;11.004;2022-11-20T04:25:08;3.40;99.90
9730;DHT22;4904;49.152;11.004;2022-11-20T04:27:35;3.50;99.90
9730;DHT22;4904;49.152;11.004;2022-11-20T04:30:02;3.50;99.90
9730;DHT22;4904;49.152;11.004;2022-11-20T04:32:29;3.50;99.90
9730;DHT22;4904;49.152;11.004;2022-11-20T04:34:56;3.50;99.90
9730;DHT22;4904;49.152;11.004;2022-11-20T04:37:24;3.50;99.90
9730;DHT22;4904;49.152;11.004;2022-11-20T04:39:51;3.60;99.90
9730;DHT22;4904;49.152;11.004;2022-11-20T04:42:18;3.60;99.90
9730;DHT22;4904;49.152;11.004;2022-11-20T04:44:58;3.60;99.90
9730;DHT22;4904;49.152;11.004;2022-11-20T04:47:25;3.70;99.90
9730;DHT22;4904;49.152;11.004;2022-11-20T04:49:52;3.80;99.90
9730;DHT22;4904;49.152;11.004;2022-11-20T04:52:19;3.80;99.90
9730;DHT22;4904;49.152;11.004;2022-11-20T04:54:47;3.90;99.90
9730;DHT22;4904;49.152;11.004;2022-11-20T04:57:14;3.90;99.90
9730;DHT22;4904;49.152;11.004;2022-11-20T04:59:41;4.00;99.90
9730;DHT22;4904;49.152;11.004;2022-11-20T05:02:09;4.00;99.90
9730;DHT22;4904;49.152;11.004;2022-11-20T05:04:36;4.10;99.90
9730;DHT22;4904;49.152;11.004;2022-11-20T05:07:03;4.20;99.90
9730;DHT22;4904;49.152;11.004;2022-11-20T05:09:30;4.30;99.90
9730;DHT22;4904;49.152;11.004;2022-11-20T05:11:58;4.30;99.90
9730;DHT22;4904;49.152;11.004;2022-11-20T05:14:25;4.40;99.90
9730;DHT22;4904;49.152;11.004;2022-11-20T05:16:52;4.40;99.90
9730;DHT22;4904;49.152;11.004;2022-11-20T05:19:19;4.40;99.90
9730;DHT22;4904;49.152;11.004;2022-11-20T05:21:45;4.50;99.90
9730;DHT22;4904;49.152;11.004;2022-11-20T05:24:12;4.50;99.90
9730;DHT22;4904;49.152;11.004;2022-11-20T05:26:39;4.40;99.90
9730;DHT22;4904;49.152;11.004;2022-11-20T05:29:09;4.50;99.90
9730;DHT22;4904;49.152;11.004;2022-11-20T05:31:36;4.40;99.90
9730;DHT22;4904;49.152;11.004;2022-11-20T05:34:03;4.40;99.90
9730;DHT22;4904;49.152;11.004;2022-11-20T05:36:30;4.40;99.90
9730;DHT22;4904;49.152;11.004;2022-11-20T05:38:57;4.40;99.90
9730;DHT22;4904;49.152;11.004;2022-11-20T05:41:24;4.40;99.90
9730;DHT22;4904;49.152;11.004;2022-11-20T05:43:51;4.30;99.90
9730;DHT22;4904;49.152;11.004;2022-11-20T05:46:20;4.20;99.90
9730;DHT22;4904;49.152;11.004;2022-11-20T05:48:47;4.10;99.90
9730;DHT22;4904;49.152;11.004;2022-11-20T05:51:16;4.10;99.90
9730;DHT22;4904;49.152;11.004;2022-11-20T05:53:43;4.20;99.90
9730;DHT22;4904;49.152;11.004;2022-11-20T05:56:12;4.20;99.90
9730;DHT22;4904;49.152;11.004;2022-11-20T05:58:39;4.20;99.90
9730;DHT22;4904;49.152;11.004;2022-11-20T06:01:09;4.20;99.90
9730;DHT22;4904;49.152;11.004;2022-11-20T06:03:38;4.20;99.90
9730;DHT22;4904;49.152;11.004;2022-11-20T06:06:06;4.20;99.90
9730;DHT22;4904;49.152;11.004;2022-11-20T06:08:33;4.20;99.90
9730;DHT22;4904;49.152;11.004;2022-11-20T06:11:03;4.20;99.90
9730;DHT22;4904;49.152;11.004;2022-11-20T06:13:30;4.20;99.90
9730;DHT22;4904;49.152;11.004;2022-11-20T06:15:57;4.10;99.90
9730;DHT22;4904;49.152;11.004;2022-11-20T06:18:26;4.10;99.90
9730;DHT22;4904;49.152;11.004;2022-11-20T06:21:01;4.00;99.90
9730;DHT22;4904;49.152;11.004;2022-11-20T06:23:29;4.00;99.90
9730;DHT22;4904;49.152;11.004;2022-11-20T06:25:56;4.10;99.90
9730;DHT22;4904;49.152;11.004;2022-11-20T06:28:23;4.30;99.90
9730;DHT22;4904;49.152;11.004;2022-11-20T06:30:50;4.60;99.90
9730;DHT22;4904;49.152;11.004;2022-11-20T06:33:17;4.80;99.90
9730;DHT22;4904;49.152;11.004;2022-11-20T06:35:43;4.80;99.90
9730;DHT22;4904;49.152;11.004;2022-11-20T06:38:12;4.40;99.90
9730;DHT22;4904;49.152;11.004;2022-11-20T06:40:40;4.10;99.90
9730;DHT22;4904;49.152;11.004;2022-11-20T06:43:07;4.10;99.90
9730;DHT22;4904;49.152;11.004;2022-11-20T06:45:34;4.10;99.90
9730;DHT22;4904;49.152;11.004;2022-11-20T06:48:00;4.10;99.90
9730;DHT22;4904;49.152;11.004;2022-11-20T06:50:27;4.20;99.90
9730;DHT22;4904;49.152;11.004;2022-11-20T06:52:54;4.20;99.90
9730;DHT22;4904;49.152;11.004;2022-11-20T06:55:22;4.20;99.90
9730;DHT22;4904;49.152;11.004;2022-11-20T06:57:50;4.30;99.90
9730;DHT22;4904;49.152;11.004;2022-11-20T07:00:17;4.20;99.90
9730;DHT22;4904;49.152;11.004;2022-11-20T07:02:44;4.30;99.90
9730;DHT22;4904;49.152;11.004;2022-11-20T07:05:11;4.20;99.90
9730;DHT22;4904;49.152;11.004;2022-11-20T07:07:38;4.20;99.90
9730;DHT22;4904;49.152;11.004;2022-11-20T07:10:05;4.20;99.90
9730;DHT22;4904;49.152;11.004;2022-11-20T07:12:33;4.20;99.90
9730;DHT22;4904;49.152;11.004;2022-11-20T07:15:00;4.20;99.90
9730;DHT22;4904;49.152;11.004;2022-11-20T07:17:27;4.30;99.90
9730;DHT22;4904;49.152;11.004;2022-11-20T07:19:54;4.20;99.90
9730;DHT22;4904;49.152;11.004;2022-11-20T07:22:21;4.20;99.90
9730;DHT22;4904;49.152;11.004;2022-11-20T07:24:48;4.40;99.90
9730;DHT22;4904;49.152;11.004;2022-11-20T07:27:15;4.60;99.90
9730;DHT22;4904;49.152;11.004;2022-11-20T07:29:43;4.80;99.90
9730;DHT22;4904;49.152;11.004;2022-11-20T07:32:10;4.90;99.90
9730;DHT22;4904;49.152;11.004;2022-11-20T07:34:36;4.90;99.90
9730;DHT22;4904;49.152;11.004;2022-11-20T07:37:03;5.00;99.90
9730;DHT22;4904;49.152;11.004;2022-11-20T07:39:30;5.10;99.90
9730;DHT22;4904;49.152;11.004;2022-11-20T07:41:57;5.00;99.90
9730;DHT22;4904;49.152;11.004;2022-11-20T07:44:24;5.10;99.90
9730;DHT22;4904;49.152;11.004;2022-11-20T07:46:52;5.30;99.90
9730;DHT22;4904;49.152;11.004;2022-11-20T07:49:19;5.30;99.90
9730;DHT22;4904;49.152;11.004;2022-11-20T07:51:45;5.20;99.90
9730;DHT22;4904;49.152;11.004;2022-11-20T07:54:12;5.30;99.90
9730;DHT22;4904;49.152;11.004;2022-11-20T07:56:39;5.30;99.90
9730;DHT22;4904;49.152;11.004;2022-11-20T07:59:06;5.30;99.90
9730;DHT22;4904;49.152;11.004;2022-11-20T08:01:33;5.30;99.90
9730;DHT22;4904;49.152;11.004;2022-11-20T08:04:01;5.30;99.90
9730;DHT22;4904;49.152;11.004;2022-11-20T08:06:28;5.30;99.90
9730;DHT22;4904;49.152;11.004;2022-11-20T08:08:54;5.30;99.90
9730;DHT22;4904;49.152;11.004;2022-11-20T08:11:21;5.40;99.90
9730;DHT22;4904;49.152;11.004;2022-11-20T08:14:06;5.30;99.90
9730;DHT22;4904;49.152;11.004;2022-11-20T08:16:39;5.40;99.90
9730;DHT22;4904;49.152;11.004;2022-11-20T08:19:07;5.30;99.90
9730;DHT22;4904;49.152;11.004;2022-11-20T08:21:34;5.30;99.90
9730;DHT22;4904;49.152;11.004;2022-11-20T08:24:01;5.30;99.90
9730;DHT22;4904;49.152;11.004;2022-11-20T08:26:28;5.30;99.90
9730;DHT22;4904;49.152;11.004;2022-11-20T08:28:56;5.20;99.90
9730;DHT22;4904;49.152;11.004;2022-11-20T08:31:23;5.30;99.90
9730;DHT22;4904;49.152;11.004;2022-11-20T08:33:51;5.20;99.90
9730;DHT22;4904;49.152;11.004;2022-11-20T08:36:20;5.20;99.90
9730;DHT22;4904;49.152;11.004;2022-11-20T08:38:48;5.20;99.90
9730;DHT22;4904;49.152;11.004;2022-11-20T08:41:15;5.20;99.90
9730;DHT22;4904;49.152;11.004;2022-11-20T08:43:53;5.20;99.90
9730;DHT22;4904;49.152;11.004;2022-11-20T08:46:21;5.10;99.90
9730;DHT22;4904;49.152;11.004;2022-11-20T08:48:49;5.20;99.90
9730;DHT22;4904;49.152;11.004;2022-11-20T08:51:16;5.20;99.90
9730;DHT22;4904;49.152;11.004;2022-11-20T08:53:44;5.20;99.90
9730;DHT22;4904;49.152;11.004;2022-11-20T08:56:11;5.30;99.90
9730;DHT22;4904;49.152;11.004;2022-11-20T08:58:38;5.30;99.90
9730;DHT22;4904;49.152;11.004;2022-11-20T09:01:05;5.40;99.90
9730;DHT22;4904;49.152;11.004;2022-11-20T09:03:32;5.30;99.90
9730;DHT22;4904;49.152;11.004;2022-11-20T09:05:59;5.40;99.90
9730;DHT22;4904;49.152;11.004;2022-11-20T09:08:26;5.40;99.90
9730;DHT22;4904;49.152;11.004;2022-11-20T09:10:56;5.40;99.90
9730;DHT22;4904;49.152;11.004;2022-11-20T09:13:23;5.40;99.90
9730;DHT22;4904;49.152;11.004;2022-11-20T09:15:53;5.40;99.90
9730;DHT22;4904;49.152;11.004;2022-11-20T09:18:21;5.30;99.90
9730;DHT22;4904;49.152;11.004;2022-11-20T09:20:48;5.30;99.90
9730;DHT22;4904;49.152;11.004;2022-11-20T09:23:15;5.30;99.90
9730;DHT22;4904;49.152;11.004;2022-11-20T09:25:42;5.30;99.90
9730;DHT22;4904;49.152;11.004;2022-11-20T09:28:11;5.30;99.90
9730;DHT22;4904;49.152;11.004;2022-11-20T09:30:38;5.20;99.90
9730;DHT22;4904;49.152;11.004;2022-11-20T09:33:05;5.20;99.90
9730;DHT22;4904;49.152;11.004;2022-11-20T09:35:32;5.20;99.90
9730;DHT22;4904;49.152;11.004;2022-11-20T09:38:04;5.20;99.90
9730;DHT22;4904;49.152;11.004;2022-11-20T09:40:31;5.20;99.90
9730;DHT22;4904;49.152;11.004;2022-11-20T09:43:02;5.20;99.90
9730;DHT22;4904;49.152;11.004;2022-11-20T09:45:38;5.20;99.90
9730;DHT22;4904;49.152;11.004;2022-11-20T09:48:18;5.30;99.90
9730;DHT22;4904;49.152;11.004;2022-11-20T09:50:51;5.20;99.90
9730;DHT22;4904;49.152;11.004;2022-11-20T09:53:27;5.20;99.90
9730;DHT22;4904;49.152;11.004;2022-11-20T09:55:55;5.20;99.90
9730;DHT22;4904;49.152;11.004;2022-11-20T09:58:29;5.20;99.90
9730;DHT22;4904;49.152;11.004;2022-11-20T10:01:06;5.20;99.90
9730;DHT22;4904;49.152;11.004;2022-11-20T10:03:39;5.20;99.90
9730;DHT22;4904;49.152;11.004;2022-11-20T10:06:12;5.20;99.90
9730;DHT22;4904;49.152;11.004;2022-11-20T10:08:43;5.30;99.90
9730;DHT22;4904;49.152;11.004;2022-11-20T10:11:18;5.30;99.90
9730;DHT22;4904;49.152;11.004;2022-11-20T10:13:55;5.30;99.90
9730;DHT22;4904;49.152;11.004;2022-11-20T10:16:33;5.30;99.90
9730;DHT22;4904;49.152;11.004;2022-11-20T10:19:13;5.20;99.90
9730;DHT22;4904;49.152;11.004;2022-11-20T10:21:54;5.20;99.90
9730;DHT22;4904;49.152;11.004;2022-11-20T10:24:43;5.20;99.90
9730;DHT22;4904;49.152;11.004;2022-11-20T10:27:25;5.30;99.90
9730;DHT22;4904;49.152;11.004;2022-11-20T10:30:01;5.30;99.90
9730;DHT22;4904;49.152;11.004;2022-11-20T10:32:33;5.40;99.90
9730;DHT22;4904;49.152;11.004;2022-11-20T10:35:07;5.30;99.90
9730;DHT22;4904;49.152;11.004;2022-11-20T10:37:38;5.30;99.90
9730;DHT22;4904;49.152;11.004;2022-11-20T10:40:20;5.40;99.90
9730;DHT22;4904;49.152;11.004;2022-11-20T10:42:51;5.40;99.90
9730;DHT22;4904;49.152;11.004;2022-11-20T10:45:35;5.50;99.90
9730;DHT22;4904;49.152;11.004;2022-11-20T10:48:12;5.50;99.90
9730;DHT22;4904;49.152;11.004;2022-11-20T10:50:53;5.60;99.90
9730;DHT22;4904;49.152;11.004;2022-11-20T10:53:38;5.60;99.90
9730;DHT22;4904;49.152;11.004;2022-11-20T10:56:11;5.70;99.90
9730;DHT22;4904;49.152;11.004;2022-11-20T10:58:47;5.90;99.90
9730;DHT22;4904;49.152;11.004;2022-11-20T11:01:17;5.70;99.90
9730;DHT22;4904;49.152;11.004;2022-11-20T11:03:48;5.80;99.90
9730;DHT22;4904;49.152;11.004;2022-11-20T11:06:22;5.80;99.90
9730;DHT22;4904;49.152;11.004;2022-11-20T11:08:53;5.90;99.90
9730;DHT22;4904;49.152;11.004;2022-11-20T11:11:23;5.90;99.90
9730;DHT22;4904;49.152;11.004;2022-11-20T11:13:50;6.00;99.90
9730;DHT22;4904;49.152;11.004;2022-11-20T11:16:22;6.00;99.90
9730;DHT22;4904;49.152;11.004;2022-11-20T11:18:51;6.00;99.90
9730;DHT22;4904;49.152;11.004;2022-11-20T11:21:25;6.00;99.90
9730;DHT22;4904;49.152;11.004;2022-11-20T11:23:59;6.00;99.90
9730;DHT22;4904;49.152;11.004;2022-11-20T11:26:27;6.00;99.90
9730;DHT22;4904;49.152;11.004;2022-11-20T11:28:55;5.90;99.90
9730;DHT22;4904;49.152;11.004;2022-11-20T11:31:23;5.90;99.90
9730;DHT22;4904;49.152;11.004;2022-11-20T11:33:52;5.90;99.90
9730;DHT22;4904;49.152;11.004;2022-11-20T11:36:22;5.90;99.90
9730;DHT22;4904;49.152;11.004;2022-11-20T11:38:51;5.90;99.90
9730;DHT22;4904;49.152;11.004;2022-11-20T11:41:22;5.90;99.90
9730;DHT22;4904;49.152;11.004;2022-11-20T11:43:52;5.90;99.90
9730;DHT22;4904;49.152;11.004;2022-11-20T11:46:38;6.00;99.90
9730;DHT22;4904;49.152;11.004;2022-11-20T11:49:18;6.00;99.90
9730;DHT22;4904;49.152;11.004;2022-11-20T11:51:58;6.10;99.90
9730;DHT22;4904;49.152;11.004;2022-11-20T11:54:30;6.20;99.90
9730;DHT22;4904;49.152;11.004;2022-11-20T11:57:01;6.30;99.90
9730;DHT22;4904;49.152;11.004;2022-11-20T11:59:43;6.30;99.90
9730;DHT22;4904;49.152;11.004;2022-11-20T12:02:29;6.40;99.90
9730;DHT22;4904;49.152;11.004;2022-11-20T12:05:02;6.40;99.90
9730;DHT22;4904;49.152;11.004;2022-11-20T12:07:39;6.40;99.90
9730;DHT22;4904;49.152;11.004;2022-11-20T12:10:15;6.40;99.90
9730;DHT22;4904;49.152;11.004;2022-11-20T12:12:46;6.30;99.90
9730;DHT22;4904;49.152;11.004;2022-11-20T12:15:25;6.40;99.90
9730;DHT22;4904;49.152;11.004;2022-11-20T12:17:52;6.30;99.90
9730;DHT22;4904;49.152;11.004;2022-11-20T12:20:24;6.30;99.90
9730;DHT22;4904;49.152;11.004;2022-11-20T12:22:56;6.20;99.90
9730;DHT22;4904;49.152;11.004;2022-11-20T12:25:28;6.10;99.90
9730;DHT22;4904;49.152;11.004;2022-11-20T12:28:19;6.10;99.90
9730;DHT22;4904;49.152;11.004;2022-11-20T12:31:03;6.00;99.90
9730;DHT22;4904;49.152;11.004;2022-11-20T12:34:08;6.00;99.90
9730;DHT22;4904;49.152;11.004;2022-11-20T12:36:44;6.00;99.90
9730;DHT22;4904;49.152;11.004;2022-11-20T12:39:30;6.00;99.90
9730;DHT22;4904;49.152;11.004;2022-11-20T12:42:27;6.00;99.90
9730;DHT22;4904;49.152;11.004;2022-11-20T12:45:23;6.00;99.90
9730;DHT22;4904;49.152;11.004;2022-11-20T12:48:09;6.00;99.90
9730;DHT22;4904;49.152;11.004;2022-11-20T12:50:49;6.00;99.90
9730;DHT22;4904;49.152;11.004;2022-11-20T12:53:26;5.90;99.90
9730;DHT22;4904;49.152;11.004;2022-11-20T12:56:01;5.90;99.90
9730;DHT22;4904;49.152;11.004;2022-11-20T12:58:39;6.00;99.90
9730;DHT22;4904;49.152;11.004;2022-11-20T13:01:17;6.00;99.90
9730;DHT22;4904;49.152;11.004;2022-11-20T13:04:08;5.90;99.90
9730;DHT22;4904;49.152;11.004;2022-11-20T13:06:39;5.90;99.90
9730;DHT22;4904;49.152;11.004;2022-11-20T13:09:11;6.00;99.90
9730;DHT22;4904;49.152;11.004;2022-11-20T13:11:43;5.90;99.90
9730;DHT22;4904;49.152;11.004;2022-11-20T13:14:24;5.90;99.90
9730;DHT22;4904;49.152;11.004;2022-11-20T13:16:57;6.00;99.90
9730;DHT22;4904;49.152;11.004;2022-11-20T13:19:25;6.10;99.90
9730;DHT22;4904;49.152;11.004;2022-11-20T13:21:52;6.10;99.90
9730;DHT22;4904;49.152;11.004;2022-11-20T13:24:26;6.10;99.90
9730;DHT22;4904;49.152;11.004;2022-11-20T13:27:18;6.20;99.90
9730;DHT22;4904;49.152;11.004;2022-11-20T13:29:57;6.20;99.90
9730;DHT22;4904;49.152;11.004;2022-11-20T13:32:25;6.30;99.90
9730;DHT22;4904;49.152;11.004;2022-11-20T13:34:54;6.30;99.90
9730;DHT22;4904;49.152;11.004;2022-11-20T13:37:27;6.30;99.90
9730;DHT22;4904;49.152;11.004;2022-11-20T13:40:12;6.30;99.90
9730;DHT22;4904;49.152;11.004;2022-11-20T13:42:43;6.40;99.90
9730;DHT22;4904;49.152;11.004;2022-11-20T13:45:21;6.40;99.90
9730;DHT22;4904;49.152;11.004;2022-11-20T13:47:49;6.40;99.90
9730;DHT22;4904;49.152;11.004;2022-11-20T13:50:16;6.40;99.90
9730;DHT22;4904;49.152;11.004;2022-11-20T13:52:50;6.40;99.90
9730;DHT22;4904;49.152;11.004;2022-11-20T13:55:26;6.40;99.90
9730;DHT22;4904;49.152;11.004;2022-11-20T13:58:19;6.40;99.90
9730;DHT22;4904;49.152;11.004;2022-11-20T14:00:55;6.30;99.90
9730;DHT22;4904;49.152;11.004;2022-11-20T14:03:24;6.40;99.90
9730;DHT22;4904;49.152;11.004;2022-11-20T14:06:04;6.40;99.90
9730;DHT22;4904;49.152;11.004;2022-11-20T14:08:36;6.40;99.90
9730;DHT22;4904;49.152;11.004;2022-11-20T14:11:13;6.40;99.90
9730;DHT22;4904;49.152;11.004;2022-11-20T14:13:55;6.40;99.90
9730;DHT22;4904;49.152;11.004;2022-11-20T14:16:23;6.40;99.90
9730;DHT22;4904;49.152;11.004;2022-11-20T14:18:50;6.40;99.90
9730;DHT22;4904;49.152;11.004;2022-11-20T14:21:24;6.40;99.90
9730;DHT22;4904;49.152;11.004;2022-11-20T14:24:03;6.40;99.90
9730;DHT22;4904;49.152;11.004;2022-11-20T14:26:32;6.50;99.90
9730;DHT22;4904;49.152;11.004;2022-11-20T14:28:59;6.60;99.90
9730;DHT22;4904;49.152;11.004;2022-11-20T14:31:27;6.60;99.90
9730;DHT22;4904;49.152;11.004;2022-11-20T14:33:55;6.70;99.90
9730;DHT22;4904;49.152;11.004;2022-11-20T14:36:24;6.70;99.90
9730;DHT22;4904;49.152;11.004;2022-11-20T14:38:52;6.70;99.90
9730;DHT22;4904;49.152;11.004;2022-11-20T14:41:21;6.60;99.90
9730;DHT22;4904;49.152;11.004;2022-11-20T14:43:53;6.60;99.90
9730;DHT22;4904;49.152;11.004;2022-11-20T14:46:21;6.70;99.90
9730;DHT22;4904;49.152;11.004;2022-11-20T14:48:50;6.60;99.90
9730;DHT22;4904;49.152;11.004;2022-11-20T14:51:27;6.60;99.90
9730;DHT22;4904;49.152;11.004;2022-11-20T14:53:54;6.70;99.90
9730;DHT22;4904;49.152;11.004;2022-11-20T14:56:22;6.60;99.90
9730;DHT22;4904;49.152;11.004;2022-11-20T14:58:57;6.60;99.90
9730;DHT22;4904;49.152;11.004;2022-11-20T15:01:28;6.60;99.90
9730;DHT22;4904;49.152;11.004;2022-11-20T15:04:01;6.60;99.90
9730;DHT22;4904;49.152;11.004;2022-11-20T15:06:28;6.60;99.90
9730;DHT22;4904;49.152;11.004;2022-11-20T15:08:57;6.60;99.90
9730;DHT22;4904;49.152;11.004;2022-11-20T15:11:28;6.60;99.90
9730;DHT22;4904;49.152;11.004;2022-11-20T15:13:59;6.60;99.90
9730;DHT22;4904;49.152;11.004;2022-11-20T15:16:28;6.50;99.90
9730;DHT22;4904;49.152;11.004;2022-11-20T15:18:55;6.50;99.90
9730;DHT22;4904;49.152;11.004;2022-11-20T15:21:22;6.50;99.90
9730;DHT22;4904;49.152;11.004;2022-11-20T15:23:50;6.50;99.90
9730;DHT22;4904;49.152;11.004;2022-11-20T15:26:21;6.40;99.90
9730;DHT22;4904;49.152;11.004;2022-11-20T15:28:49;6.40;99.90
9730;DHT22;4904;49.152;11.004;2022-11-20T15:31:19;6.30;99.90
9730;DHT22;4904;49.152;11.004;2022-11-20T15:33:46;6.30;99.90
9730;DHT22;4904;49.152;11.004;2022-11-20T15:36:13;6.30;99.90
9730;DHT22;4904;49.152;11.004;2022-11-20T15:38:40;6.20;99.90
9730;DHT22;4904;49.152;11.004;2022-11-20T15:41:08;6.20;99.90
9730;DHT22;4904;49.152;11.004;2022-11-20T15:43:36;6.20;99.90
9730;DHT22;4904;49.152;11.004;2022-11-20T15:46:05;6.10;99.90
9730;DHT22;4904;49.152;11.004;2022-11-20T15:48:38;6.10;99.90
9730;DHT22;4904;49.152;11.004;2022-11-20T15:51:11;6.10;99.90
9730;DHT22;4904;49.152;11.004;2022-11-20T15:53:41;6.00;99.90
9730;DHT22;4904;49.152;11.004;2022-11-20T15:56:11;6.00;99.90
9730;DHT22;4904;49.152;11.004;2022-11-20T15:58:39;6.00;99.90
9730;DHT22;4904;49.152;11.004;2022-11-20T16:01:10;6.00;99.90
9730;DHT22;4904;49.152;11.004;2022-11-20T16:03:38;6.00;99.90
9730;DHT22;4904;49.152;11.004;2022-11-20T16:06:05;6.00;99.90
9730;DHT22;4904;49.152;11.004;2022-11-20T16:08:32;5.90;99.90
9730;DHT22;4904;49.152;11.004;2022-11-20T16:10:59;6.00;99.90
9730;DHT22;4904;49.152;11.004;2022-11-20T16:13:26;6.00;99.90
9730;DHT22;4904;49.152;11.004;2022-11-20T16:16:17;6.10;99.90
9730;DHT22;4904;49.152;11.004;2022-11-20T16:18:46;6.10;99.90
9730;DHT22;4904;49.152;11.004;2022-11-20T16:21:13;6.20;99.90
9730;DHT22;4904;49.152;11.004;2022-11-20T16:23:41;6.20;99.90